sensor_id;sensor_type;location;lat;lon;timestamp;P1;durP1;ratioP1;P2;durP2;ratioP2
42124;SDS011;27787;44.594;11.046;2023-02-02T00:00:08;18.25;;;8.55;;
42124;SDS011;27787;44.594;11.046;2023-02-02T00:02:53;24.52;;;8.95;;
42124;SDS011;27787;44.594;11.046;2023-02-02T03:10:53;15.10;;;5.50;;
42124;SDS011;27787;44.594;11.046;2023-02-02T03:13:41;11.25;;;4.95;;
42124;SDS011;27787;44.594;11.046;2023-02-02T03:16:26;13.52;;;6.18;;
42124;SDS011;27787;44.594;11.046;2023-02-02T03:19:10;8.50;;;3.45;;
42124;SDS011;27787;44.594;11.046;2023-02-02T03:21:55;9.30;;;4.40;;
42124;SDS011;27787;44.594;11.046;2023-02-02T03:24:44;8.98;;;3.47;;
42124;SDS011;27787;44.594;11.046;2023-02-02T03:27:32;7.88;;;3.58;;
42124;SDS011;27787;44.594;11.046;2023-02-02T03:30:17;12.80;;;4.70;;
42124;SDS011;27787;44.594;11.046;2023-02-02T03:33:04;16.63;;;4.45;;
42124;SDS011;27787;44.594;11.046;2023-02-02T03:35:50;7.65;;;4.13;;
42124;SDS011;27787;44.594;11.046;2023-02-02T03:38:36;10.32;;;4.30;;
42124;SDS011;27787;44.594;11.046;2023-02-02T03:41:20;7.32;;;3.67;;
42124;SDS011;27787;44.594;11.046;2023-02-02T03:44:04;11.73;;;3.30;;
42124;SDS011;27787;44.594;11.046;2023-02-02T03:46:54;5.85;;;3.08;;
42124;SDS011;27787;44.594;11.046;2023-02-02T03:49:43;9.32;;;3.90;;
42124;SDS011;27787;44.594;11.046;2023-02-02T03:52:30;10.15;;;5.85;;
42124;SDS011;27787;44.594;11.046;2023-02-02T03:55:15;10.90;;;5.63;;
42124;SDS011;27787;44.594;11.046;2023-02-02T04:00:48;10.73;;;4.72;;
42124;SDS011;27787;44.594;11.046;2023-02-02T04:03:32;12.55;;;4.85;;
42124;SDS011;27787;44.594;11.046;2023-02-02T04:06:20;11.48;;;5.00;;
42124;SDS011;27787;44.594;11.046;2023-02-02T04:09:04;11.38;;;4.13;;
42124;SDS011;27787;44.594;11.046;2023-02-02T04:11:52;10.52;;;4.32;;
42124;SDS011;27787;44.594;11.046;2023-02-02T04:14:39;9.80;;;4.95;;
42124;SDS011;27787;44.594;11.046;2023-02-02T04:17:33;11.80;;;5.35;;
42124;SDS011;27787;44.594;11.046;2023-02-02T04:20:19;16.05;;;5.00;;
42124;SDS011;27787;44.594;11.046;2023-02-02T04:23:05;13.65;;;5.15;;
42124;SDS011;27787;44.594;11.046;2023-02-02T04:25:52;12.68;;;4.85;;
42124;SDS011;27787;44.594;11.046;2023-02-02T04:28:38;11.43;;;4.57;;
42124;SDS011;27787;44.594;11.046;2023-02-02T04:31:25;9.68;;;4.65;;
42124;SDS011;27787;44.594;11.046;2023-02-02T04:34:10;11.13;;;5.22;;
42124;SDS011;27787;44.594;11.046;2023-02-02T04:36:55;12.25;;;4.97;;
42124;SDS011;27787;44.594;11.046;2023-02-02T04:39:42;10.68;;;5.05;;
42124;SDS011;27787;44.594;11.046;2023-02-02T04:45:19;7.82;;;3.92;;
42124;SDS011;27787;44.594;11.046;2023-02-02T04:48:07;9.43;;;3.85;;
42124;SDS011;27787;44.594;11.046;2023-02-02T04:50:58;10.55;;;4.32;;
42124;SDS011;27787;44.594;11.046;2023-02-02T04:53:44;6.50;;;3.17;;
42124;SDS011;27787;44.594;11.046;2023-02-02T04:56:29;7.28;;;3.38;;
42124;SDS011;27787;44.594;11.046;2023-02-02T04:59:13;11.23;;;3.78;;
42124;SDS011;27787;44.594;11.046;2023-02-02T05:02:00;11.02;;;4.85;;
42124;SDS011;27787;44.594;11.046;2023-02-02T05:04:45;7.15;;;4.05;;
42124;SDS011;27787;44.594;11.046;2023-02-02T05:07:30;10.83;;;5.10;;
42124;SDS011;27787;44.594;11.046;2023-02-02T05:10:14;11.52;;;4.35;;
42124;SDS011;27787;44.594;11.046;2023-02-02T05:13:01;13.70;;;4.95;;
42124;SDS011;27787;44.594;11.046;2023-02-02T05:15:47;9.10;;;4.55;;
42124;SDS011;27787;44.594;11.046;2023-02-02T05:18:31;9.35;;;4.07;;
42124;SDS011;27787;44.594;11.046;2023-02-02T05:21:18;8.30;;;4.15;;
42124;SDS011;27787;44.594;11.046;2023-02-02T05:24:04;10.77;;;4.97;;
42124;SDS011;27787;44.594;11.046;2023-02-02T05:26:50;10.75;;;4.82;;
42124;SDS011;27787;44.594;11.046;2023-02-02T05:29:36;10.45;;;3.88;;
42124;SDS011;27787;44.594;11.046;2023-02-02T05:32:20;9.07;;;4.35;;
42124;SDS011;27787;44.594;11.046;2023-02-02T05:35:04;10.43;;;4.63;;
42124;SDS011;27787;44.594;11.046;2023-02-02T05:37:49;11.57;;;4.53;;
42124;SDS011;27787;44.594;11.046;2023-02-02T05:40:32;8.73;;;4.78;;
42124;SDS011;27787;44.594;11.046;2023-02-02T05:43:17;13.40;;;4.70;;
42124;SDS011;27787;44.594;11.046;2023-02-02T05:46:00;8.60;;;4.13;;
42124;SDS011;27787;44.594;11.046;2023-02-02T05:48:45;10.23;;;4.90;;
42124;SDS011;27787;44.594;11.046;2023-02-02T05:51:33;10.35;;;4.15;;
42124;SDS011;27787;44.594;11.046;2023-02-02T05:54:23;9.65;;;4.00;;
42124;SDS011;27787;44.594;11.046;2023-02-02T05:57:07;8.43;;;4.22;;
42124;SDS011;27787;44.594;11.046;2023-02-02T05:59:52;7.93;;;3.13;;
42124;SDS011;27787;44.594;11.046;2023-02-02T06:02:36;6.20;;;2.65;;
42124;SDS011;27787;44.594;11.046;2023-02-02T06:05:22;11.47;;;3.40;;
42124;SDS011;27787;44.594;11.046;2023-02-02T06:08:06;10.05;;;3.65;;
42124;SDS011;27787;44.594;11.046;2023-02-02T06:10:51;9.00;;;3.63;;
42124;SDS011;27787;44.594;11.046;2023-02-02T06:13:35;6.40;;;2.90;;
42124;SDS011;27787;44.594;11.046;2023-02-02T06:16:19;6.93;;;3.15;;
42124;SDS011;27787;44.594;11.046;2023-02-02T06:19:03;9.98;;;3.55;;
42124;SDS011;27787;44.594;11.046;2023-02-02T06:21:48;14.07;;;3.75;;
42124;SDS011;27787;44.594;11.046;2023-02-02T06:24:32;9.00;;;3.45;;
42124;SDS011;27787;44.594;11.046;2023-02-02T06:27:17;7.38;;;3.45;;
42124;SDS011;27787;44.594;11.046;2023-02-02T06:30:01;7.57;;;3.72;;
42124;SDS011;27787;44.594;11.046;2023-02-02T06:32:46;12.07;;;3.88;;
42124;SDS011;27787;44.594;11.046;2023-02-02T06:35:30;14.30;;;4.13;;
42124;SDS011;27787;44.594;11.046;2023-02-02T06:38:14;8.75;;;3.53;;
42124;SDS011;27787;44.594;11.046;2023-02-02T06:40:58;13.15;;;3.55;;
42124;SDS011;27787;44.594;11.046;2023-02-02T06:43:44;9.20;;;3.17;;
42124;SDS011;27787;44.594;11.046;2023-02-02T06:46:28;8.55;;;4.20;;
42124;SDS011;27787;44.594;11.046;2023-02-02T06:49:12;6.78;;;3.53;;
42124;SDS011;27787;44.594;11.046;2023-02-02T06:51:57;8.00;;;3.78;;
42124;SDS011;27787;44.594;11.046;2023-02-02T06:54:42;12.95;;;4.40;;
42124;SDS011;27787;44.594;11.046;2023-02-02T06:57:26;8.85;;;4.30;;
42124;SDS011;27787;44.594;11.046;2023-02-02T07:00:19;9.32;;;3.28;;
42124;SDS011;27787;44.594;11.046;2023-02-02T07:03:07;10.07;;;2.65;;
42124;SDS011;27787;44.594;11.046;2023-02-02T07:06:15;7.63;;;3.85;;
42124;SDS011;27787;44.594;11.046;2023-02-02T07:09:10;11.55;;;3.55;;
42124;SDS011;27787;44.594;11.046;2023-02-02T07:11:54;11.65;;;4.18;;
42124;SDS011;27787;44.594;11.046;2023-02-02T07:14:39;15.80;;;5.00;;
42124;SDS011;27787;44.594;11.046;2023-02-02T07:17:24;10.07;;;5.18;;
42124;SDS011;27787;44.594;11.046;2023-02-02T07:20:08;12.23;;;6.25;;
42124;SDS011;27787;44.594;11.046;2023-02-02T07:22:53;15.63;;;5.83;;
42124;SDS011;27787;44.594;11.046;2023-02-02T07:25:41;15.85;;;6.70;;
42124;SDS011;27787;44.594;11.046;2023-02-02T07:28:26;25.10;;;7.30;;
42124;SDS011;27787;44.594;11.046;2023-02-02T07:31:11;16.35;;;6.80;;
42124;SDS011;27787;44.594;11.046;2023-02-02T07:33:58;15.13;;;6.63;;
42124;SDS011;27787;44.594;11.046;2023-02-02T07:36:42;17.08;;;6.88;;
42124;SDS011;27787;44.594;11.046;2023-02-02T07:39:27;24.30;;;7.90;;
42124;SDS011;27787;44.594;11.046;2023-02-02T07:42:11;19.17;;;8.38;;
42124;SDS011;27787;44.594;11.046;2023-02-02T07:44:57;27.55;;;8.07;;
42124;SDS011;27787;44.594;11.046;2023-02-02T07:47:42;21.23;;;7.50;;
42124;SDS011;27787;44.594;11.046;2023-02-02T07:50:27;19.20;;;8.00;;
42124;SDS011;27787;44.594;11.046;2023-02-02T07:56:31;26.25;;;8.43;;
42124;SDS011;27787;44.594;11.046;2023-02-02T07:59:10;16.92;;;8.63;;
42124;SDS011;27787;44.594;11.046;2023-02-02T08:01:54;19.90;;;10.30;;
42124;SDS011;27787;44.594;11.046;2023-02-02T08:04:39;34.33;;;12.02;;
42124;SDS011;27787;44.594;11.046;2023-02-02T08:07:23;24.55;;;11.13;;
42124;SDS011;27787;44.594;11.046;2023-02-02T08:10:08;28.15;;;9.88;;
42124;SDS011;27787;44.594;11.046;2023-02-02T08:12:57;30.08;;;10.88;;
42124;SDS011;27787;44.594;11.046;2023-02-02T08:15:43;21.02;;;10.63;;
42124;SDS011;27787;44.594;11.046;2023-02-02T08:18:27;21.45;;;9.98;;
42124;SDS011;27787;44.594;11.046;2023-02-02T08:21:15;19.63;;;10.15;;
42124;SDS011;27787;44.594;11.046;2023-02-02T08:24:00;24.08;;;10.93;;
42124;SDS011;27787;44.594;11.046;2023-02-02T08:26:48;26.52;;;11.18;;
42124;SDS011;27787;44.594;11.046;2023-02-02T08:29:38;28.85;;;11.32;;
42124;SDS011;27787;44.594;11.046;2023-02-02T08:32:25;23.95;;;10.60;;
42124;SDS011;27787;44.594;11.046;2023-02-02T08:35:10;22.38;;;10.27;;
42124;SDS011;27787;44.594;11.046;2023-02-02T08:37:56;23.88;;;9.52;;
42124;SDS011;27787;44.594;11.046;2023-02-02T08:40:40;24.45;;;10.23;;
42124;SDS011;27787;44.594;11.046;2023-02-02T08:43:30;26.83;;;10.15;;
42124;SDS011;27787;44.594;11.046;2023-02-02T08:46:17;29.05;;;11.50;;
42124;SDS011;27787;44.594;11.046;2023-02-02T08:49:02;22.98;;;10.48;;
42124;SDS011;27787;44.594;11.046;2023-02-02T08:51:46;19.65;;;9.95;;
42124;SDS011;27787;44.594;11.046;2023-02-02T08:54:31;22.20;;;9.73;;
42124;SDS011;27787;44.594;11.046;2023-02-02T08:57:15;35.00;;;10.63;;
42124;SDS011;27787;44.594;11.046;2023-02-02T09:00:01;19.30;;;9.00;;
42124;SDS011;27787;44.594;11.046;2023-02-02T09:05:34;19.27;;;8.48;;
42124;SDS011;27787;44.594;11.046;2023-02-02T09:08:21;19.30;;;9.05;;
42124;SDS011;27787;44.594;11.046;2023-02-02T09:11:06;22.60;;;9.73;;
42124;SDS011;27787;44.594;11.046;2023-02-02T09:13:56;16.00;;;7.57;;
42124;SDS011;27787;44.594;11.046;2023-02-02T09:16:42;21.48;;;7.88;;
42124;SDS011;27787;44.594;11.046;2023-02-02T09:19:27;12.68;;;6.00;;
42124;SDS011;27787;44.594;11.046;2023-02-02T09:22:12;21.57;;;6.37;;
42124;SDS011;27787;44.594;11.046;2023-02-02T09:24:56;18.55;;;6.30;;
42124;SDS011;27787;44.594;11.046;2023-02-02T09:27:49;22.33;;;6.53;;
42124;SDS011;27787;44.594;11.046;2023-02-02T09:30:34;21.33;;;7.72;;
42124;SDS011;27787;44.594;11.046;2023-02-02T09:33:21;20.52;;;7.28;;
42124;SDS011;27787;44.594;11.046;2023-02-02T09:36:11;12.52;;;6.57;;
42124;SDS011;27787;44.594;11.046;2023-02-02T09:39:07;18.45;;;8.23;;
42124;SDS011;27787;44.594;11.046;2023-02-02T09:45:02;16.05;;;7.03;;
42124;SDS011;27787;44.594;11.046;2023-02-02T09:50:42;23.00;;;8.40;;
42124;SDS011;27787;44.594;11.046;2023-02-02T09:53:36;19.65;;;6.78;;
42124;SDS011;27787;44.594;11.046;2023-02-02T09:56:29;28.15;;;8.32;;
42124;SDS011;27787;44.594;11.046;2023-02-02T09:59:34;21.38;;;7.10;;
42124;SDS011;27787;44.594;11.046;2023-02-02T10:02:35;11.20;;;6.45;;
42124;SDS011;27787;44.594;11.046;2023-02-02T10:05:25;20.90;;;7.00;;
42124;SDS011;27787;44.594;11.046;2023-02-02T10:08:17;19.38;;;7.00;;
42124;SDS011;27787;44.594;11.046;2023-02-02T10:14:47;14.27;;;7.47;;
42124;SDS011;27787;44.594;11.046;2023-02-02T10:17:53;18.65;;;7.40;;
42124;SDS011;27787;44.594;11.046;2023-02-02T10:23:33;26.45;;;7.30;;
42124;SDS011;27787;44.594;11.046;2023-02-02T10:26:20;13.25;;;6.88;;
42124;SDS011;27787;44.594;11.046;2023-02-02T10:29:11;14.25;;;7.13;;
42124;SDS011;27787;44.594;11.046;2023-02-02T10:32:32;20.20;;;6.63;;
42124;SDS011;27787;44.594;11.046;2023-02-02T10:38:53;8.23;;;4.78;;
42124;SDS011;27787;44.594;11.046;2023-02-02T10:44:49;10.57;;;4.45;;
42124;SDS011;27787;44.594;11.046;2023-02-02T10:47:37;9.98;;;4.47;;
42124;SDS011;27787;44.594;11.046;2023-02-02T10:50:21;9.20;;;3.10;;
42124;SDS011;27787;44.594;11.046;2023-02-02T10:53:09;6.35;;;3.40;;
42124;SDS011;27787;44.594;11.046;2023-02-02T10:56:04;8.57;;;3.22;;
42124;SDS011;27787;44.594;11.046;2023-02-02T10:59:00;5.90;;;2.72;;
42124;SDS011;27787;44.594;11.046;2023-02-02T11:01:49;3.38;;;1.95;;
42124;SDS011;27787;44.594;11.046;2023-02-02T11:04:34;4.57;;;2.58;;
42124;SDS011;27787;44.594;11.046;2023-02-02T11:07:37;6.03;;;2.10;;
42124;SDS011;27787;44.594;11.046;2023-02-02T11:10:21;9.13;;;2.55;;
42124;SDS011;27787;44.594;11.046;2023-02-02T11:13:06;5.30;;;2.13;;
42124;SDS011;27787;44.594;11.046;2023-02-02T11:18:57;4.85;;;1.80;;
42124;SDS011;27787;44.594;11.046;2023-02-02T11:21:49;6.97;;;2.27;;
42124;SDS011;27787;44.594;11.046;2023-02-02T11:24:48;5.65;;;2.03;;
42124;SDS011;27787;44.594;11.046;2023-02-02T11:30:42;5.13;;;1.92;;
42124;SDS011;27787;44.594;11.046;2023-02-02T11:33:35;3.53;;;1.23;;
42124;SDS011;27787;44.594;11.046;2023-02-02T11:36:20;3.03;;;1.65;;
42124;SDS011;27787;44.594;11.046;2023-02-02T11:39:20;10.73;;;1.80;;
42124;SDS011;27787;44.594;11.046;2023-02-02T11:42:15;6.05;;;1.98;;
42124;SDS011;27787;44.594;11.046;2023-02-02T11:45:02;2.90;;;1.30;;
42124;SDS011;27787;44.594;11.046;2023-02-02T11:47:50;6.30;;;1.55;;
42124;SDS011;27787;44.594;11.046;2023-02-02T11:50:35;2.53;;;1.50;;
42124;SDS011;27787;44.594;11.046;2023-02-02T11:53:21;3.08;;;1.63;;
42124;SDS011;27787;44.594;11.046;2023-02-02T11:56:41;2.17;;;1.27;;
42124;SDS011;27787;44.594;11.046;2023-02-02T11:59:38;2.40;;;1.20;;
42124;SDS011;27787;44.594;11.046;2023-02-02T12:02:29;2.65;;;1.40;;
42124;SDS011;27787;44.594;11.046;2023-02-02T12:08:29;3.63;;;1.30;;
42124;SDS011;27787;44.594;11.046;2023-02-02T12:17:51;2.67;;;1.00;;
42124;SDS011;27787;44.594;11.046;2023-02-02T12:20:49;4.00;;;1.08;;
42124;SDS011;27787;44.594;11.046;2023-02-02T12:26:41;2.42;;;1.17;;
42124;SDS011;27787;44.594;11.046;2023-02-02T12:35:42;3.03;;;1.65;;
42124;SDS011;27787;44.594;11.046;2023-02-02T12:38:40;2.15;;;1.30;;
42124;SDS011;27787;44.594;11.046;2023-02-02T12:41:48;5.10;;;1.77;;
42124;SDS011;27787;44.594;11.046;2023-02-02T13:09:02;1.15;;;0.60;;
42124;SDS011;27787;44.594;11.046;2023-02-02T13:12:04;3.83;;;1.08;;
42124;SDS011;27787;44.594;11.046;2023-02-02T13:14:56;1.02;;;0.70;;
42124;SDS011;27787;44.594;11.046;2023-02-02T13:17:58;1.20;;;0.70;;
42124;SDS011;27787;44.594;11.046;2023-02-02T13:21:03;3.53;;;0.70;;
42124;SDS011;27787;44.594;11.046;2023-02-02T13:23:52;0.57;;;0.43;;
42124;SDS011;27787;44.594;11.046;2023-02-02T13:26:40;1.80;;;0.70;;
42124;SDS011;27787;44.594;11.046;2023-02-02T13:29:32;2.17;;;0.88;;
42124;SDS011;27787;44.594;11.046;2023-02-02T13:32:37;0.88;;;0.57;;
42124;SDS011;27787;44.594;11.046;2023-02-02T13:35:25;1.65;;;0.95;;
42124;SDS011;27787;44.594;11.046;2023-02-02T13:38:16;3.30;;;0.90;;
42124;SDS011;27787;44.594;11.046;2023-02-02T13:41:06;3.65;;;0.80;;
42124;SDS011;27787;44.594;11.046;2023-02-02T13:43:58;0.88;;;0.70;;
42124;SDS011;27787;44.594;11.046;2023-02-02T13:46:51;0.88;;;0.40;;
42124;SDS011;27787;44.594;11.046;2023-02-02T13:49:59;3.13;;;1.13;;
42124;SDS011;27787;44.594;11.046;2023-02-02T13:53:12;5.43;;;1.00;;
42124;SDS011;27787;44.594;11.046;2023-02-02T13:59:24;3.28;;;1.27;;
42124;SDS011;27787;44.594;11.046;2023-02-02T14:05:39;1.95;;;0.70;;
42124;SDS011;27787;44.594;11.046;2023-02-02T14:08:26;1.00;;;0.90;;
42124;SDS011;27787;44.594;11.046;2023-02-02T14:11:20;2.53;;;0.77;;
42124;SDS011;27787;44.594;11.046;2023-02-02T14:14:22;1.83;;;0.57;;
42124;SDS011;27787;44.594;11.046;2023-02-02T14:20:37;3.45;;;0.80;;
42124;SDS011;27787;44.594;11.046;2023-02-02T14:23:52;2.05;;;0.63;;
42124;SDS011;27787;44.594;11.046;2023-02-02T14:26:46;2.80;;;0.90;;
42124;SDS011;27787;44.594;11.046;2023-02-02T14:38:18;1.83;;;0.90;;
42124;SDS011;27787;44.594;11.046;2023-02-02T14:41:08;3.90;;;0.63;;
42124;SDS011;27787;44.594;11.046;2023-02-02T14:44:19;5.25;;;1.75;;
42124;SDS011;27787;44.594;11.046;2023-02-02T14:47:12;3.15;;;1.13;;
42124;SDS011;27787;44.594;11.046;2023-02-02T14:56:14;4.45;;;1.70;;
42124;SDS011;27787;44.594;11.046;2023-02-02T14:59:00;3.97;;;1.38;;
42124;SDS011;27787;44.594;11.046;2023-02-02T15:01:52;2.30;;;1.05;;
42124;SDS011;27787;44.594;11.046;2023-02-02T15:04:42;4.18;;;1.38;;
42124;SDS011;27787;44.594;11.046;2023-02-02T15:10:15;2.08;;;0.70;;
42124;SDS011;27787;44.594;11.046;2023-02-02T15:13:28;0.60;;;0.50;;
42124;SDS011;27787;44.594;11.046;2023-02-02T15:16:28;1.00;;;0.57;;
42124;SDS011;27787;44.594;11.046;2023-02-02T15:19:18;1.10;;;0.57;;
42124;SDS011;27787;44.594;11.046;2023-02-02T15:25:23;8.32;;;1.30;;
42124;SDS011;27787;44.594;11.046;2023-02-02T15:31:50;1.90;;;0.70;;
42124;SDS011;27787;44.594;11.046;2023-02-02T15:37:10;0.75;;;0.57;;
42124;SDS011;27787;44.594;11.046;2023-02-02T15:40:13;0.98;;;0.60;;
42124;SDS011;27787;44.594;11.046;2023-02-02T15:43:00;1.05;;;0.60;;
42124;SDS011;27787;44.594;11.046;2023-02-02T15:45:53;1.38;;;0.68;;
42124;SDS011;27787;44.594;11.046;2023-02-02T15:48:45;2.15;;;0.70;;
42124;SDS011;27787;44.594;11.046;2023-02-02T15:51:51;2.05;;;0.93;;
42124;SDS011;27787;44.594;11.046;2023-02-02T15:54:37;7.28;;;1.50;;
42124;SDS011;27787;44.594;11.046;2023-02-02T15:57:23;5.93;;;1.35;;
42124;SDS011;27787;44.594;11.046;2023-02-02T16:03:09;2.35;;;1.25;;
42124;SDS011;27787;44.594;11.046;2023-02-02T16:05:57;6.63;;;1.23;;
42124;SDS011;27787;44.594;11.046;2023-02-02T16:08:42;3.28;;;1.00;;
42124;SDS011;27787;44.594;11.046;2023-02-02T16:11:26;2.53;;;1.27;;
42124;SDS011;27787;44.594;11.046;2023-02-02T16:14:12;3.00;;;1.60;;
42124;SDS011;27787;44.594;11.046;2023-02-02T16:17:17;4.55;;;1.50;;
42124;SDS011;27787;44.594;11.046;2023-02-02T16:20:11;8.23;;;1.63;;
42124;SDS011;27787;44.594;11.046;2023-02-02T16:22:58;4.10;;;1.77;;
42124;SDS011;27787;44.594;11.046;2023-02-02T16:25:50;5.03;;;1.52;;
42124;SDS011;27787;44.594;11.046;2023-02-02T16:28:36;4.03;;;1.80;;
42124;SDS011;27787;44.594;11.046;2023-02-02T16:31:22;10.35;;;3.38;;
42124;SDS011;27787;44.594;11.046;2023-02-02T16:34:12;8.75;;;3.38;;
42124;SDS011;27787;44.594;11.046;2023-02-02T16:37:04;7.50;;;2.50;;
42124;SDS011;27787;44.594;11.046;2023-02-02T16:39:50;6.45;;;2.05;;
42124;SDS011;27787;44.594;11.046;2023-02-02T16:42:34;4.32;;;2.00;;
42124;SDS011;27787;44.594;11.046;2023-02-02T16:45:38;10.43;;;1.88;;
42124;SDS011;27787;44.594;11.046;2023-02-02T16:51:24;5.43;;;1.73;;
42124;SDS011;27787;44.594;11.046;2023-02-02T16:56:59;3.83;;;1.92;;
42124;SDS011;27787;44.594;11.046;2023-02-02T16:59:47;6.22;;;2.20;;
42124;SDS011;27787;44.594;11.046;2023-02-02T17:02:39;6.35;;;1.98;;
42124;SDS011;27787;44.594;11.046;2023-02-02T17:05:29;10.75;;;3.83;;
42124;SDS011;27787;44.594;11.046;2023-02-02T17:08:25;10.90;;;3.63;;
42124;SDS011;27787;44.594;11.046;2023-02-02T17:11:26;8.50;;;3.15;;
42124;SDS011;27787;44.594;11.046;2023-02-02T17:14:18;10.88;;;4.03;;
42124;SDS011;27787;44.594;11.046;2023-02-02T17:17:09;9.02;;;4.05;;
42124;SDS011;27787;44.594;11.046;2023-02-02T17:19:53;7.50;;;3.83;;
42124;SDS011;27787;44.594;11.046;2023-02-02T17:22:38;6.95;;;3.00;;
42124;SDS011;27787;44.594;11.046;2023-02-02T17:25:26;6.65;;;3.17;;
42124;SDS011;27787;44.594;11.046;2023-02-02T17:28:17;5.97;;;2.60;;
42124;SDS011;27787;44.594;11.046;2023-02-02T17:31:07;5.13;;;2.38;;
42124;SDS011;27787;44.594;11.046;2023-02-02T17:33:53;8.18;;;2.67;;
42124;SDS011;27787;44.594;11.046;2023-02-02T17:36:37;7.68;;;3.28;;
42124;SDS011;27787;44.594;11.046;2023-02-02T17:39:21;9.32;;;3.20;;
42124;SDS011;27787;44.594;11.046;2023-02-02T17:42:05;12.57;;;3.78;;
42124;SDS011;27787;44.594;11.046;2023-02-02T17:45:02;14.82;;;4.32;;
42124;SDS011;27787;44.594;11.046;2023-02-02T17:47:46;17.42;;;5.00;;
42124;SDS011;27787;44.594;11.046;2023-02-02T17:50:33;11.23;;;5.50;;
42124;SDS011;27787;44.594;11.046;2023-02-02T17:53:20;11.48;;;4.82;;
42124;SDS011;27787;44.594;11.046;2023-02-02T17:56:05;14.07;;;4.82;;
42124;SDS011;27787;44.594;11.046;2023-02-02T17:58:49;12.75;;;6.03;;
42124;SDS011;27787;44.594;11.046;2023-02-02T18:01:34;19.45;;;7.05;;
42124;SDS011;27787;44.594;11.046;2023-02-02T18:04:21;19.88;;;9.15;;
42124;SDS011;27787;44.594;11.046;2023-02-02T18:07:07;23.08;;;7.97;;
42124;SDS011;27787;44.594;11.046;2023-02-02T18:09:52;22.20;;;7.35;;
42124;SDS011;27787;44.594;11.046;2023-02-02T18:12:36;16.05;;;7.22;;
42124;SDS011;27787;44.594;11.046;2023-02-02T18:15:20;18.38;;;8.00;;
42124;SDS011;27787;44.594;11.046;2023-02-02T18:18:05;24.75;;;8.05;;
42124;SDS011;27787;44.594;11.046;2023-02-02T18:20:49;23.60;;;7.93;;
42124;SDS011;27787;44.594;11.046;2023-02-02T18:23:34;21.13;;;7.32;;
42124;SDS011;27787;44.594;11.046;2023-02-02T18:26:19;22.65;;;8.52;;
42124;SDS011;27787;44.594;11.046;2023-02-02T18:29:05;17.58;;;6.60;;
42124;SDS011;27787;44.594;11.046;2023-02-02T18:31:49;20.65;;;9.27;;
42124;SDS011;27787;44.594;11.046;2023-02-02T18:34:34;22.92;;;9.27;;
42124;SDS011;27787;44.594;11.046;2023-02-02T18:37:19;26.35;;;9.18;;
42124;SDS011;27787;44.594;11.046;2023-02-02T18:40:03;25.60;;;9.27;;
42124;SDS011;27787;44.594;11.046;2023-02-02T18:42:48;25.30;;;9.80;;
42124;SDS011;27787;44.594;11.046;2023-02-02T18:45:33;27.10;;;9.80;;
42124;SDS011;27787;44.594;11.046;2023-02-02T18:48:18;29.27;;;11.80;;
42124;SDS011;27787;44.594;11.046;2023-02-02T18:51:06;26.73;;;9.30;;
42124;SDS011;27787;44.594;11.046;2023-02-02T18:53:53;42.58;;;4.85;;
42124;SDS011;27787;44.594;11.046;2023-02-02T18:56:42;11.23;;;5.00;;
42124;SDS011;27787;44.594;11.046;2023-02-02T18:59:26;11.90;;;5.75;;
42124;SDS011;27787;44.594;11.046;2023-02-02T19:02:12;15.05;;;7.65;;
42124;SDS011;27787;44.594;11.046;2023-02-02T19:04:57;26.25;;;9.63;;
42124;SDS011;27787;44.594;11.046;2023-02-02T19:08:01;30.05;;;12.50;;
42124;SDS011;27787;44.594;11.046;2023-02-02T19:10:46;24.65;;;10.93;;
42124;SDS011;27787;44.594;11.046;2023-02-02T19:13:33;28.92;;;12.70;;
42124;SDS011;27787;44.594;11.046;2023-02-02T19:16:25;41.95;;;14.63;;
42124;SDS011;27787;44.594;11.046;2023-02-02T19:19:33;54.55;;;16.45;;
42124;SDS011;27787;44.594;11.046;2023-02-02T19:22:21;35.00;;;15.68;;
42124;SDS011;27787;44.594;11.046;2023-02-02T19:25:08;40.97;;;17.35;;
42124;SDS011;27787;44.594;11.046;2023-02-02T19:27:54;40.05;;;17.60;;
42124;SDS011;27787;44.594;11.046;2023-02-02T19:30:38;39.40;;;17.08;;
42124;SDS011;27787;44.594;11.046;2023-02-02T19:33:36;41.45;;;18.23;;
42124;SDS011;27787;44.594;11.046;2023-02-02T19:36:22;45.70;;;17.35;;
42124;SDS011;27787;44.594;11.046;2023-02-02T19:39:17;38.60;;;17.67;;
42124;SDS011;27787;44.594;11.046;2023-02-02T19:42:04;37.47;;;18.65;;
42124;SDS011;27787;44.594;11.046;2023-02-02T19:44:54;42.72;;;17.35;;
42124;SDS011;27787;44.594;11.046;2023-02-02T19:47:39;37.65;;;17.42;;
42124;SDS011;27787;44.594;11.046;2023-02-02T19:50:24;41.67;;;19.42;;
42124;SDS011;27787;44.594;11.046;2023-02-02T19:53:17;50.00;;;18.92;;
42124;SDS011;27787;44.594;11.046;2023-02-02T19:56:23;45.40;;;18.75;;
42124;SDS011;27787;44.594;11.046;2023-02-02T19:59:15;39.13;;;16.60;;
42124;SDS011;27787;44.594;11.046;2023-02-02T20:05:14;35.17;;;15.48;;
42124;SDS011;27787;44.594;11.046;2023-02-02T20:08:29;25.33;;;12.05;;
42124;SDS011;27787;44.594;11.046;2023-02-02T20:11:33;25.38;;;11.32;;
42124;SDS011;27787;44.594;11.046;2023-02-02T20:14:42;24.38;;;12.77;;
42124;SDS011;27787;44.594;11.046;2023-02-02T20:17:29;26.80;;;11.82;;
42124;SDS011;27787;44.594;11.046;2023-02-02T20:20:24;24.40;;;10.98;;
42124;SDS011;27787;44.594;11.046;2023-02-02T20:23:22;25.55;;;10.90;;
42124;SDS011;27787;44.594;11.046;2023-02-02T20:26:20;27.25;;;10.57;;
42124;SDS011;27787;44.594;11.046;2023-02-02T20:32:24;26.17;;;11.55;;
42124;SDS011;27787;44.594;11.046;2023-02-02T20:38:20;23.70;;;9.68;;
42124;SDS011;27787;44.594;11.046;2023-02-02T20:41:08;20.38;;;8.90;;
42124;SDS011;27787;44.594;11.046;2023-02-02T20:43:52;15.48;;;7.07;;
42124;SDS011;27787;44.594;11.046;2023-02-02T20:46:36;12.85;;;5.53;;
42124;SDS011;27787;44.594;11.046;2023-02-02T20:49:20;10.30;;;5.22;;
42124;SDS011;27787;44.594;11.046;2023-02-02T20:52:11;12.70;;;5.50;;
42124;SDS011;27787;44.594;11.046;2023-02-02T20:55:09;11.35;;;5.07;;
42124;SDS011;27787;44.594;11.046;2023-02-02T20:57:56;9.65;;;4.95;;
42124;SDS011;27787;44.594;11.046;2023-02-02T21:00:40;15.10;;;5.93;;
42124;SDS011;27787;44.594;11.046;2023-02-02T21:03:25;12.80;;;6.20;;
42124;SDS011;27787;44.594;11.046;2023-02-02T21:06:09;14.38;;;6.43;;
42124;SDS011;27787;44.594;11.046;2023-02-02T21:08:55;15.20;;;7.03;;
42124;SDS011;27787;44.594;11.046;2023-02-02T21:11:40;15.90;;;6.55;;
42124;SDS011;27787;44.594;11.046;2023-02-02T21:14:24;13.63;;;6.75;;
42124;SDS011;27787;44.594;11.046;2023-02-02T21:17:09;17.67;;;7.23;;
42124;SDS011;27787;44.594;11.046;2023-02-02T21:19:55;13.43;;;6.07;;
42124;SDS011;27787;44.594;11.046;2023-02-02T21:25:24;9.23;;;4.63;;
42124;SDS011;27787;44.594;11.046;2023-02-02T21:28:12;12.73;;;4.93;;
42124;SDS011;27787;44.594;11.046;2023-02-02T21:30:57;10.85;;;4.90;;
42124;SDS011;27787;44.594;11.046;2023-02-02T21:33:41;12.18;;;5.05;;
42124;SDS011;27787;44.594;11.046;2023-02-02T21:36:28;12.48;;;4.97;;
42124;SDS011;27787;44.594;11.046;2023-02-02T21:39:37;9.45;;;5.18;;
42124;SDS011;27787;44.594;11.046;2023-02-02T21:42:20;11.27;;;4.68;;
42124;SDS011;27787;44.594;11.046;2023-02-02T21:45:22;13.48;;;5.68;;
42124;SDS011;27787;44.594;11.046;2023-02-02T21:54:40;12.20;;;5.50;;
42124;SDS011;27787;44.594;11.046;2023-02-02T21:57:20;26.35;;;9.80;;
42124;SDS011;27787;44.594;11.046;2023-02-02T22:00:26;15.85;;;7.43;;
42124;SDS011;27787;44.594;11.046;2023-02-02T22:03:31;18.00;;;6.95;;